Seneca, Michigan
Current Conditions -  °F | °C
As of 9:53 PM on Monday 20 Oct 2014 (Local Time) from KADG Reporting Station
Overcast Overcast  
Wind Chill: 12°   Ceiling: 5500
Heat Index: 12°   Visibility: 10mi
Dew Point:   Wind: 10mph
Humidity: 80%   Direction: 340°NNW
Pressure: 29.88"   Gusts: NA
Location:  41.79°N, 84.18°W
Report Text: KADG 210153Z AUTO 34009KT 10SM BKN055 OVC065 12/09 A2988 RMK AO2 SLP121 T01220089
Loading
Personal Weather Stations






























Interactive Weather Map
Tropical Storm Tracking
New forecast layout! Learn more

10-Day Weather Forecast

Advertisements
Track Severe Weather on mobile